PWSweather.com
Personal Weather Stations
Station Observations
PICKERING
North Yorkshire, PickeringGB

North YorkshirePickeringGB

Lat: 54.2494, Lon: -0.7725

Elevation: 192

Station Type: Oregon Scientific WMR100

http://www.yorkshirewalker.co.uk/weather/

High Low Average
Temperature 46.4°F8.0°C 30.2°F-1.0°C 36.8°F2.7°C
Dew Point 37.4°F3.0°C 23.0°F-5.0°C 29.7°F-1.3°C
Winds 8.4 mph 13.5 kmh Calm Calm 2.0 mph SSW3.2 kmh SSW
Wind Gusts 13.6 mph21.9 kmh -- 3.0 mph4.8 kmh
Humidity 81% 61% 75%
Pressure 29.09 in985.1 mb 28.38 in961.1 mb -
Precipitation 0.00 in0.0 mm - -
Hour Temp Dew Point Humidity Winds Wind Gusts Pressure Precip Precip Rate Daily Precip Total
12:00 AM 38.1°F3.4°C 32.0°F0.0°C 77% 0.4 mph SSE0.6 kmh SSE 3.8 mph6.1 kmh 28.77 in974.3 mb 0.00 in0.0 mm 0.00 in0.0 mm 0.00 in0.0 mm
12:05 AM 37.8°F3.2°C 32.0°F0.0°C 77% 0.8 mph S1.3 kmh S 3.8 mph6.1 kmh 28.77 in974.3 mb 0.00 in0.0 mm 0.00 in0.0 mm 0.00 in0.0 mm
12:10 AM 37.6°F3.1°C 32.0°F0.0°C 77% 0.6 mph SSW1.0 kmh SSW 2.2 mph3.5 kmh 28.74 in973.2 mb 0.00 in0.0 mm 0.00 in0.0 mm 0.00 in0.0 mm
12:15 AM 36.9°F2.7°C 30.2°F-1.0°C 77% 0.8 mph SW1.3 kmh SW 2.2 mph3.5 kmh 28.74 in973.2 mb 0.00 in0.0 mm 0.00 in0.0 mm 0.00 in0.0 mm
12:20 AM 36.5°F2.5°C 30.2°F-1.0°C 77% 0.6 mph SW1.0 kmh SW 2.2 mph3.5 kmh 28.74 in973.2 mb 0.00 in0.0 mm 0.00 in0.0 mm 0.00 in0.0 mm
12:25 AM 36.7°F2.6°C 30.2°F-1.0°C 78% 1.1 mph SW1.8 kmh SW 4.3 mph6.9 kmh 28.74 in973.2 mb 0.00 in0.0 mm 0.00 in0.0 mm 0.00 in0.0 mm
12:30 AM 36.5°F2.5°C 30.2°F-1.0°C 78% 1.8 mph SW2.9 kmh SW 4.3 mph6.9 kmh 28.74 in973.2 mb 0.00 in0.0 mm 0.00 in0.0 mm 0.00 in0.0 mm
12:35 AM 36.3°F2.4°C 30.2°F-1.0°C 78% 1.4 mph SSW2.3 kmh SSW 4.3 mph6.9 kmh 28.74 in973.2 mb 0.00 in0.0 mm 0.00 in0.0 mm 0.00 in0.0 mm
12:40 AM 36.3°F2.4°C 30.2°F-1.0°C 78% 1.9 mph SSW3.1 kmh SSW 3.1 mph5.0 kmh 28.74 in973.2 mb 0.00 in0.0 mm 0.00 in0.0 mm 0.00 in0.0 mm
12:45 AM 36.5°F2.5°C 30.2°F-1.0°C 78% 2.7 mph SSW4.3 kmh SSW 4.9 mph7.9 kmh 28.74 in973.2 mb 0.00 in0.0 mm 0.00 in0.0 mm 0.00 in0.0 mm
12:50 AM 36.5°F2.5°C 30.2°F-1.0°C 78% 2.7 mph SSW4.3 kmh SSW 4.9 mph7.9 kmh 28.74 in973.2 mb 0.00 in0.0 mm 0.00 in0.0 mm 0.00 in0.0 mm
12:55 AM 36.5°F2.5°C 30.2°F-1.0°C 78% 2.8 mph S4.5 kmh S 6.3 mph10.1 kmh 28.74 in973.2 mb 0.00 in0.0 mm 0.00 in0.0 mm 0.00 in0.0 mm
01:00 AM 36.5°F2.5°C 30.2°F-1.0°C 78% 2.6 mph SSW4.2 kmh SSW 6.3 mph10.1 kmh 28.74 in973.2 mb 0.00 in0.0 mm 0.00 in0.0 mm 0.00 in0.0 mm
01:05 AM 36.3°F2.4°C 30.2°F-1.0°C 78% 2.0 mph SSW3.2 kmh SSW 5.4 mph8.7 kmh 28.74 in973.2 mb 0.00 in0.0 mm 0.00 in0.0 mm 0.00 in0.0 mm
01:10 AM 36.1°F2.3°C 30.2°F-1.0°C 78% 1.0 mph SW1.6 kmh SW 2.0 mph3.2 kmh 28.74 in973.2 mb 0.00 in0.0 mm 0.00 in0.0 mm 0.00 in0.0 mm
01:15 AM 36.0°F2.2°C 30.2°F-1.0°C 78% 0.7 mph SW1.1 kmh SW 2.0 mph3.2 kmh 28.74 in973.2 mb 0.00 in0.0 mm 0.00 in0.0 mm 0.00 in0.0 mm
01:20 AM 36.0°F2.2°C 30.2°F-1.0°C 78% 0.8 mph SSW1.3 kmh SSW 2.5 mph4.0 kmh 28.74 in973.2 mb 0.00 in0.0 mm 0.00 in0.0 mm 0.00 in0.0 mm
01:25 AM 35.8°F2.1°C 30.2°F-1.0°C 78% 0.8 mph SSW1.3 kmh SSW 2.5 mph4.0 kmh 28.74 in973.2 mb 0.00 in0.0 mm 0.00 in0.0 mm 0.00 in0.0 mm
01:30 AM 36.0°F2.2°C 30.2°F-1.0°C 78% 0.6 mph SSW1.0 kmh SSW 1.3 mph2.1 kmh 28.74 in973.2 mb 0.00 in0.0 mm 0.00 in0.0 mm 0.00 in0.0 mm
01:35 AM 36.1°F2.3°C 30.2°F-1.0°C 78% 0.6 mph S1.0 kmh S 1.3 mph2.1 kmh 28.74 in973.2 mb 0.00 in0.0 mm 0.00 in0.0 mm 0.00 in0.0 mm
01:40 AM 35.8°F2.1°C 30.2°F-1.0°C 78% 0.3 mph SSE0.5 kmh SSE 1.1 mph1.8 kmh 28.74 in973.2 mb 0.00 in0.0 mm 0.00 in0.0 mm 0.00 in0.0 mm
01:45 AM 35.6°F2.0°C 30.2°F-1.0°C 78% 0.1 mph SE0.2 kmh SE 0.9 mph1.4 kmh 28.74 in973.2 mb 0.00 in0.0 mm 0.00 in0.0 mm 0.00 in0.0 mm
01:50 AM 35.4°F1.9°C 30.2°F-1.0°C 78% 0.1 mph NNW0.2 kmh NNW 1.1 mph1.8 kmh 28.74 in973.2 mb 0.00 in0.0 mm 0.00 in0.0 mm 0.00 in0.0 mm
01:55 AM 35.2°F1.8°C 28.4°F-2.0°C 78% 0.1 mph NNW0.2 kmh NNW 1.1 mph1.8 kmh 28.68 in971.2 mb 0.00 in0.0 mm 0.00 in0.0 mm 0.00 in0.0 mm
02:00 AM 35.2°F1.8°C 28.4°F-2.0°C 78% 0.3 mph SE0.5 kmh SE 0.9 mph1.4 kmh 28.68 in971.2 mb 0.00 in0.0 mm 0.00 in0.0 mm 0.00 in0.0 mm
02:05 AM 35.1°F1.7°C 30.2°F-1.0°C 79% 0.3 mph SE0.5 kmh SE 0.9 mph1.4 kmh 28.68 in971.2 mb 0.00 in0.0 mm 0.00 in0.0 mm 0.00 in0.0 mm
02:10 AM 34.9°F1.6°C 30.2°F-1.0°C 79% 0.2 mph S0.3 kmh S 0.9 mph1.4 kmh 28.71 in972.2 mb 0.00 in0.0 mm 0.00 in0.0 mm 0.00 in0.0 mm
02:15 AM 34.9°F1.6°C 30.2°F-1.0°C 79% 0.1 mph SSE0.2 kmh SSE 0.9 mph1.4 kmh 28.71 in972.2 mb 0.00 in0.0 mm 0.00 in0.0 mm 0.00 in0.0 mm
02:20 AM 35.1°F1.7°C 30.2°F-1.0°C 79% Calm Calm -- 28.71 in972.2 mb 0.00 in0.0 mm 0.00 in0.0 mm 0.00 in0.0 mm
02:25 AM 34.7°F1.5°C 30.2°F-1.0°C 79% 0.4 mph NNE0.6 kmh NNE 1.6 mph2.6 kmh 28.71 in972.2 mb 0.00 in0.0 mm 0.00 in0.0 mm 0.00 in0.0 mm
02:30 AM 34.7°F1.5°C 30.2°F-1.0°C 79% 1.0 mph N1.6 kmh N 2.0 mph3.2 kmh 28.71 in972.2 mb 0.00 in0.0 mm 0.00 in0.0 mm 0.00 in0.0 mm
02:35 AM 34.5°F1.4°C 28.4°F-2.0°C 79% 1.1 mph N1.8 kmh N 2.0 mph3.2 kmh 28.71 in972.2 mb 0.00 in0.0 mm 0.00 in0.0 mm 0.00 in0.0 mm
02:40 AM 34.3°F1.3°C 28.4°F-2.0°C 79% 0.5 mph N0.8 kmh N 2.0 mph3.2 kmh 28.71 in972.2 mb 0.00 in0.0 mm 0.00 in0.0 mm 0.00 in0.0 mm
02:45 AM 34.3°F1.3°C 28.4°F-2.0°C 79% 0.4 mph E0.6 kmh E 1.1 mph1.8 kmh 28.71 in972.2 mb 0.00 in0.0 mm 0.00 in0.0 mm 0.00 in0.0 mm
02:50 AM 34.3°F1.3°C 28.4°F-2.0°C 79% 0.8 mph E1.3 kmh E 2.2 mph3.5 kmh 28.71 in972.2 mb 0.00 in0.0 mm 0.00 in0.0 mm 0.00 in0.0 mm
02:55 AM 34.2°F1.2°C 28.4°F-2.0°C 79% 0.5 mph ENE0.8 kmh ENE 2.2 mph3.5 kmh 28.68 in971.2 mb 0.00 in0.0 mm 0.00 in0.0 mm 0.00 in0.0 mm
03:00 AM 34.2°F1.2°C 28.4°F-2.0°C 79% 0.7 mph NE1.1 kmh NE 2.0 mph3.2 kmh 28.68 in971.2 mb 0.00 in0.0 mm 0.00 in0.0 mm 0.00 in0.0 mm
03:05 AM 34.2°F1.2°C 28.4°F-2.0°C 79% 1.3 mph NE2.1 kmh NE 2.7 mph4.3 kmh 28.68 in971.2 mb 0.00 in0.0 mm 0.00 in0.0 mm 0.00 in0.0 mm
03:10 AM 34.2°F1.2°C 28.4°F-2.0°C 79% 0.8 mph E1.3 kmh E 2.7 mph4.3 kmh 28.68 in971.2 mb 0.00 in0.0 mm 0.00 in0.0 mm 0.00 in0.0 mm
03:15 AM 34.2°F1.2°C 28.4°F-2.0°C 79% 0.2 mph E0.3 kmh E 1.1 mph1.8 kmh 28.68 in971.2 mb 0.00 in0.0 mm 0.00 in0.0 mm 0.00 in0.0 mm
03:20 AM 34.2°F1.2°C 28.4°F-2.0°C 79% 0.1 mph E0.2 kmh E 0.9 mph1.4 kmh 28.68 in971.2 mb 0.00 in0.0 mm 0.00 in0.0 mm 0.00 in0.0 mm
03:25 AM 34.0°F1.1°C 28.4°F-2.0°C 79% Calm Calm -- 28.68 in971.2 mb 0.00 in0.0 mm 0.00 in0.0 mm 0.00 in0.0 mm
03:30 AM 34.0°F1.1°C 28.4°F-2.0°C 79% Calm Calm -- 28.68 in971.2 mb 0.00 in0.0 mm 0.00 in0.0 mm 0.00 in0.0 mm
03:35 AM 34.5°F1.4°C 28.4°F-2.0°C 79% 0.1 mph SE0.2 kmh SE 1.1 mph1.8 kmh 28.68 in971.2 mb 0.00 in0.0 mm 0.00 in0.0 mm 0.00 in0.0 mm
03:40 AM 34.7°F1.5°C 30.2°F-1.0°C 80% 0.1 mph SE0.2 kmh SE 1.1 mph1.8 kmh 28.65 in970.2 mb 0.00 in0.0 mm 0.00 in0.0 mm 0.00 in0.0 mm
03:45 AM 34.5°F1.4°C 30.2°F-1.0°C 80% Calm Calm -- 28.65 in970.2 mb 0.00 in0.0 mm 0.00 in0.0 mm 0.00 in0.0 mm
03:50 AM 34.5°F1.4°C 30.2°F-1.0°C 80% Calm Calm -- 28.65 in970.2 mb 0.00 in0.0 mm 0.00 in0.0 mm 0.00 in0.0 mm
03:55 AM 34.2°F1.2°C 30.2°F-1.0°C 80% Calm Calm -- 28.65 in970.2 mb 0.00 in0.0 mm 0.00 in0.0 mm 0.00 in0.0 mm
04:00 AM 34.3°F1.3°C 30.2°F-1.0°C 80% Calm Calm -- 28.65 in970.2 mb 0.00 in0.0 mm 0.00 in0.0 mm 0.00 in0.0 mm
04:05 AM 34.3°F1.3°C 30.2°F-1.0°C 80% 0.5 mph SSW0.8 kmh SSW 2.2 mph3.5 kmh 28.65 in970.2 mb 0.00 in0.0 mm 0.00 in0.0 mm 0.00 in0.0 mm
04:10 AM 34.2°F1.2°C 30.2°F-1.0°C 80% 0.4 mph SSW0.6 kmh SSW 2.2 mph3.5 kmh 28.65 in970.2 mb 0.00 in0.0 mm 0.00 in0.0 mm 0.00 in0.0 mm
04:15 AM 34.0°F1.1°C 28.4°F-2.0°C 79% Calm Calm -- 28.65 in970.2 mb 0.00 in0.0 mm 0.00 in0.0 mm 0.00 in0.0 mm
04:20 AM 33.8°F1.0°C 28.4°F-2.0°C 79% Calm Calm -- 28.65 in970.2 mb 0.00 in0.0 mm 0.00 in0.0 mm 0.00 in0.0 mm
04:25 AM 33.8°F1.0°C 28.4°F-2.0°C 79% 0.2 mph NE0.3 kmh NE 0.9 mph1.4 kmh 28.65 in970.2 mb 0.00 in0.0 mm 0.00 in0.0 mm 0.00 in0.0 mm
04:30 AM 33.8°F1.0°C 28.4°F-2.0°C 79% 0.8 mph NE1.3 kmh NE 1.3 mph2.1 kmh 28.65 in970.2 mb 0.00 in0.0 mm 0.00 in0.0 mm 0.00 in0.0 mm
04:35 AM 33.8°F1.0°C 28.4°F-2.0°C 80% 0.6 mph NE1.0 kmh NE 1.3 mph2.1 kmh 28.65 in970.2 mb 0.00 in0.0 mm 0.00 in0.0 mm 0.00 in0.0 mm
04:40 AM 33.6°F0.9°C 28.4°F-2.0°C 79% Calm Calm -- 28.65 in970.2 mb 0.00 in0.0 mm 0.00 in0.0 mm 0.00 in0.0 mm
04:45 AM 33.8°F1.0°C 28.4°F-2.0°C 79% 0.5 mph NE0.8 kmh NE 2.5 mph4.0 kmh 28.65 in970.2 mb 0.00 in0.0 mm 0.00 in0.0 mm 0.00 in0.0 mm
04:50 AM 33.8°F1.0°C 28.4°F-2.0°C 79% 0.9 mph NE1.4 kmh NE 2.5 mph4.0 kmh 28.65 in970.2 mb 0.00 in0.0 mm 0.00 in0.0 mm 0.00 in0.0 mm
04:55 AM 33.6°F0.9°C 28.4°F-2.0°C 80% 0.5 mph NE0.8 kmh NE 1.6 mph2.6 kmh 28.65 in970.2 mb 0.00 in0.0 mm 0.00 in0.0 mm 0.00 in0.0 mm
05:00 AM 33.6°F0.9°C 28.4°F-2.0°C 79% 0.1 mph N0.2 kmh N 0.9 mph1.4 kmh 28.65 in970.2 mb 0.00 in0.0 mm 0.00 in0.0 mm 0.00 in0.0 mm
05:05 AM 33.8°F1.0°C 28.4°F-2.0°C 80% 0.3 mph NE0.5 kmh NE 1.3 mph2.1 kmh 28.65 in970.2 mb 0.00 in0.0 mm 0.00 in0.0 mm 0.00 in0.0 mm
05:10 AM 33.8°F1.0°C 28.4°F-2.0°C 80% 0.4 mph NE0.6 kmh NE 1.3 mph2.1 kmh 28.62 in969.2 mb 0.00 in0.0 mm 0.00 in0.0 mm 0.00 in0.0 mm
05:15 AM 33.8°F1.0°C 28.4°F-2.0°C 80% 0.4 mph N0.6 kmh N 1.6 mph2.6 kmh 28.62 in969.2 mb 0.00 in0.0 mm 0.00 in0.0 mm 0.00 in0.0 mm
05:20 AM 34.0°F1.1°C 28.4°F-2.0°C 80% 0.4 mph N0.6 kmh N 1.6 mph2.6 kmh 28.62 in969.2 mb 0.00 in0.0 mm 0.00 in0.0 mm 0.00 in0.0 mm
05:25 AM 34.0°F1.1°C 28.4°F-2.0°C 80% 0.4 mph N0.6 kmh N 1.6 mph2.6 kmh 28.38 in961.1 mb 0.00 in0.0 mm 0.00 in0.0 mm 0.00 in0.0 mm
05:30 AM 34.0°F1.1°C 28.4°F-2.0°C 80% 0.2 mph N0.3 kmh N 1.3 mph2.1 kmh 28.38 in961.1 mb 0.00 in0.0 mm 0.00 in0.0 mm 0.00 in0.0 mm
05:35 AM 34.2°F1.2°C 30.2°F-1.0°C 80% 0.7 mph NE1.1 kmh NE 2.2 mph3.5 kmh 28.38 in961.1 mb 0.00 in0.0 mm 0.00 in0.0 mm 0.00 in0.0 mm
05:40 AM 34.0°F1.1°C 28.4°F-2.0°C 80% 0.7 mph NE1.1 kmh NE 2.2 mph3.5 kmh 28.62 in969.2 mb 0.00 in0.0 mm 0.00 in0.0 mm 0.00 in0.0 mm
05:45 AM 34.0°F1.1°C 28.4°F-2.0°C 80% Calm Calm -- 28.62 in969.2 mb 0.00 in0.0 mm 0.00 in0.0 mm 0.00 in0.0 mm
05:50 AM 34.0°F1.1°C 28.4°F-2.0°C 80% 0.2 mph ENE0.3 kmh ENE 1.1 mph1.8 kmh 28.62 in969.2 mb 0.00 in0.0 mm 0.00 in0.0 mm 0.00 in0.0 mm
05:55 AM 34.0°F1.1°C 28.4°F-2.0°C 80% 0.3 mph NE0.5 kmh NE 1.1 mph1.8 kmh 28.62 in969.2 mb 0.00 in0.0 mm 0.00 in0.0 mm 0.00 in0.0 mm
06:00 AM 34.0°F1.1°C 28.4°F-2.0°C 80% 0.3 mph NNE0.5 kmh NNE 1.1 mph1.8 kmh 28.62 in969.2 mb 0.00 in0.0 mm 0.00 in0.0 mm 0.00 in0.0 mm
06:05 AM 34.0°F1.1°C 28.4°F-2.0°C 80% 0.2 mph NNE0.3 kmh NNE 1.1 mph1.8 kmh 28.62 in969.2 mb 0.00 in0.0 mm 0.00 in0.0 mm 0.00 in0.0 mm
06:10 AM 34.2°F1.2°C 30.2°F-1.0°C 80% 0.1 mph NE0.2 kmh NE 0.9 mph1.4 kmh 28.62 in969.2 mb 0.00 in0.0 mm 0.00 in0.0 mm 0.00 in0.0 mm
06:15 AM 34.0°F1.1°C 28.4°F-2.0°C 80% 0.1 mph NE0.2 kmh NE 0.9 mph1.4 kmh 28.62 in969.2 mb 0.00 in0.0 mm 0.00 in0.0 mm 0.00 in0.0 mm
06:20 AM 34.0°F1.1°C 28.4°F-2.0°C 80% Calm Calm -- 28.62 in969.2 mb 0.00 in0.0 mm 0.00 in0.0 mm 0.00 in0.0 mm
06:25 AM 33.8°F1.0°C 28.4°F-2.0°C 80% 0.1 mph N0.2 kmh N 0.9 mph1.4 kmh 28.62 in969.2 mb 0.00 in0.0 mm 0.00 in0.0 mm 0.00 in0.0 mm
06:30 AM 34.0°F1.1°C 28.4°F-2.0°C 80% 0.4 mph N0.6 kmh N 0.9 mph1.4 kmh 28.62 in969.2 mb 0.00 in0.0 mm 0.00 in0.0 mm 0.00 in0.0 mm
06:35 AM 34.0°F1.1°C 28.4°F-2.0°C 80% 0.4 mph N0.6 kmh N 0.9 mph1.4 kmh 28.62 in969.2 mb 0.00 in0.0 mm 0.00 in0.0 mm 0.00 in0.0 mm
06:40 AM 33.8°F1.0°C 28.4°F-2.0°C 80% 0.3 mph N0.5 kmh N 1.3 mph2.1 kmh 28.62 in969.2 mb 0.00 in0.0 mm 0.00 in0.0 mm 0.00 in0.0 mm
06:45 AM 33.8°F1.0°C 28.4°F-2.0°C 80% 0.5 mph N0.8 kmh N 1.3 mph2.1 kmh 28.62 in969.2 mb 0.00 in0.0 mm 0.00 in0.0 mm 0.00 in0.0 mm
06:50 AM 33.8°F1.0°C 28.4°F-2.0°C 80% 0.4 mph N0.6 kmh N 0.9 mph1.4 kmh 28.62 in969.2 mb 0.00 in0.0 mm 0.00 in0.0 mm 0.00 in0.0 mm
06:55 AM 34.0°F1.1°C 28.4°F-2.0°C 80% 0.1 mph NW0.2 kmh NW 0.9 mph1.4 kmh 28.62 in969.2 mb 0.00 in0.0 mm 0.00 in0.0 mm 0.00 in0.0 mm
07:00 AM 34.0°F1.1°C 28.4°F-2.0°C 80% 0.1 mph ENE0.2 kmh ENE 0.9 mph1.4 kmh 28.62 in969.2 mb 0.00 in0.0 mm 0.00 in0.0 mm 0.00 in0.0 mm
07:05 AM 34.0°F1.1°C 28.4°F-2.0°C 80% 0.1 mph ENE0.2 kmh ENE 0.9 mph1.4 kmh 28.62 in969.2 mb 0.00 in0.0 mm 0.00 in0.0 mm 0.00 in0.0 mm
07:10 AM 33.8°F1.0°C 28.4°F-2.0°C 80% 0.1 mph NNW0.2 kmh NNW 0.9 mph1.4 kmh 28.62 in969.2 mb 0.00 in0.0 mm 0.00 in0.0 mm 0.00 in0.0 mm
07:15 AM 34.0°F1.1°C 28.4°F-2.0°C 80% 0.1 mph NNW0.2 kmh NNW 0.9 mph1.4 kmh 28.62 in969.2 mb 0.00 in0.0 mm 0.00 in0.0 mm 0.00 in0.0 mm
07:20 AM 34.2°F1.2°C 30.2°F-1.0°C 81% 0.2 mph NNW0.3 kmh NNW 0.9 mph1.4 kmh 28.62 in969.2 mb 0.00 in0.0 mm 0.00 in0.0 mm 0.00 in0.0 mm
07:25 AM 33.8°F1.0°C 28.4°F-2.0°C 81% 0.3 mph NNW0.5 kmh NNW 0.9 mph1.4 kmh 28.62 in969.2 mb 0.00 in0.0 mm 0.00 in0.0 mm 0.00 in0.0 mm
07:30 AM 33.8°F1.0°C 28.4°F-2.0°C 80% 0.2 mph N0.3 kmh N 0.9 mph1.4 kmh 28.62 in969.2 mb 0.00 in0.0 mm 0.00 in0.0 mm 0.00 in0.0 mm
07:35 AM 33.6°F0.9°C 28.4°F-2.0°C 80% Calm Calm -- 28.62 in969.2 mb 0.00 in0.0 mm 0.00 in0.0 mm 0.00 in0.0 mm
07:40 AM 33.6°F0.9°C 28.4°F-2.0°C 80% Calm Calm -- 28.62 in969.2 mb 0.00 in0.0 mm 0.00 in0.0 mm 0.00 in0.0 mm
07:45 AM 33.6°F0.9°C 28.4°F-2.0°C 80% Calm Calm -- 28.62 in969.2 mb 0.00 in0.0 mm 0.00 in0.0 mm 0.00 in0.0 mm
07:50 AM 33.6°F0.9°C 28.4°F-2.0°C 81% Calm Calm -- 28.62 in969.2 mb 0.00 in0.0 mm 0.00 in0.0 mm 0.00 in0.0 mm
07:55 AM 33.4°F0.8°C 28.4°F-2.0°C 81% Calm Calm -- 28.62 in969.2 mb 0.00 in0.0 mm 0.00 in0.0 mm 0.00 in0.0 mm
08:00 AM 33.8°F1.0°C 28.4°F-2.0°C 81% 0.4 mph WSW0.6 kmh WSW 0.9 mph1.4 kmh 28.62 in969.2 mb 0.00 in0.0 mm 0.00 in0.0 mm 0.00 in0.0 mm
08:05 AM 33.8°F1.0°C 28.4°F-2.0°C 81% 0.4 mph WSW0.6 kmh WSW 0.9 mph1.4 kmh 28.62 in969.2 mb 0.00 in0.0 mm 0.00 in0.0 mm 0.00 in0.0 mm
08:10 AM 33.6°F0.9°C 28.4°F-2.0°C 81% 0.1 mph SW0.2 kmh SW 0.9 mph1.4 kmh 28.62 in969.2 mb 0.00 in0.0 mm 0.00 in0.0 mm 0.00 in0.0 mm
08:15 AM 33.8°F1.0°C 28.4°F-2.0°C 81% 0.2 mph WNW0.3 kmh WNW 2.7 mph4.3 kmh 28.62 in969.2 mb 0.00 in0.0 mm 0.00 in0.0 mm 0.00 in0.0 mm
08:20 AM 33.8°F1.0°C 28.4°F-2.0°C 81% 0.2 mph WNW0.3 kmh WNW 2.7 mph4.3 kmh 28.62 in969.2 mb 0.00 in0.0 mm 0.00 in0.0 mm 0.00 in0.0 mm
08:25 AM 33.8°F1.0°C 28.4°F-2.0°C 81% Calm Calm -- 28.62 in969.2 mb 0.00 in0.0 mm 0.00 in0.0 mm 0.00 in0.0 mm
08:30 AM 34.0°F1.1°C 28.4°F-2.0°C 81% Calm Calm -- 28.62 in969.2 mb 0.00 in0.0 mm 0.00 in0.0 mm 0.00 in0.0 mm
08:35 AM 34.0°F1.1°C 28.4°F-2.0°C 81% Calm Calm -- 28.62 in969.2 mb 0.00 in0.0 mm 0.00 in0.0 mm 0.00 in0.0 mm
08:40 AM 34.0°F1.1°C 28.4°F-2.0°C 81% Calm Calm -- 28.62 in969.2 mb 0.00 in0.0 mm 0.00 in0.0 mm 0.00 in0.0 mm
08:45 AM 34.2°F1.2°C 30.2°F-1.0°C 81% 0.4 mph W0.6 kmh W 1.3 mph2.1 kmh 28.62 in969.2 mb 0.00 in0.0 mm 0.00 in0.0 mm 0.00 in0.0 mm
08:50 AM 34.3°F1.3°C 30.2°F-1.0°C 81% 0.4 mph W0.6 kmh W 1.3 mph2.1 kmh 28.62 in969.2 mb 0.00 in0.0 mm 0.00 in0.0 mm 0.00 in0.0 mm
08:55 AM 34.5°F1.4°C 30.2°F-1.0°C 81% 0.3 mph NW0.5 kmh NW 2.5 mph4.0 kmh 28.38 in961.1 mb 0.00 in0.0 mm 0.00 in0.0 mm 0.00 in0.0 mm
09:00 AM 34.7°F1.5°C 30.2°F-1.0°C 81% 0.4 mph W0.6 kmh W 2.5 mph4.0 kmh 28.38 in961.1 mb 0.00 in0.0 mm 0.00 in0.0 mm 0.00 in0.0 mm
09:05 AM 34.7°F1.5°C 30.2°F-1.0°C 81% 0.3 mph W0.5 kmh W 1.1 mph1.8 kmh 28.38 in961.1 mb 0.00 in0.0 mm 0.00 in0.0 mm 0.00 in0.0 mm
09:10 AM 34.9°F1.6°C 30.2°F-1.0°C 81% 0.5 mph WSW0.8 kmh WSW 1.3 mph2.1 kmh 28.56 in967.2 mb 0.00 in0.0 mm 0.00 in0.0 mm 0.00 in0.0 mm
09:15 AM 35.1°F1.7°C 30.2°F-1.0°C 81% 0.3 mph WSW0.5 kmh WSW 1.3 mph2.1 kmh 28.56 in967.2 mb 0.00 in0.0 mm 0.00 in0.0 mm 0.00 in0.0 mm
09:20 AM 35.2°F1.8°C 30.2°F-1.0°C 81% Calm Calm -- 28.56 in967.2 mb 0.00 in0.0 mm 0.00 in0.0 mm 0.00 in0.0 mm
09:25 AM 35.2°F1.8°C 30.2°F-1.0°C 81% Calm Calm -- 28.56 in967.2 mb 0.00 in0.0 mm 0.00 in0.0 mm 0.00 in0.0 mm
09:30 AM 35.6°F2.0°C 30.2°F-1.0°C 81% 0.1 mph WSW0.2 kmh WSW 1.3 mph2.1 kmh 28.56 in967.2 mb 0.00 in0.0 mm 0.00 in0.0 mm 0.00 in0.0 mm
09:35 AM 35.6°F2.0°C 30.2°F-1.0°C 81% 0.3 mph WSW0.5 kmh WSW 1.3 mph2.1 kmh 28.56 in967.2 mb 0.00 in0.0 mm 0.00 in0.0 mm 0.00 in0.0 mm
09:40 AM 35.8°F2.1°C 30.2°F-1.0°C 81% 0.4 mph WSW0.6 kmh WSW 1.1 mph1.8 kmh 28.56 in967.2 mb 0.00 in0.0 mm 0.00 in0.0 mm 0.00 in0.0 mm
09:45 AM 36.0°F2.2°C 30.2°F-1.0°C 81% 0.2 mph WSW0.3 kmh WSW 1.1 mph1.8 kmh 28.56 in967.2 mb 0.00 in0.0 mm 0.00 in0.0 mm 0.00 in0.0 mm
09:50 AM 36.1°F2.3°C 32.0°F0.0°C 81% 0.1 mph WSW0.2 kmh WSW 1.1 mph1.8 kmh 28.56 in967.2 mb 0.00 in0.0 mm 0.00 in0.0 mm 0.00 in0.0 mm
09:55 AM 36.3°F2.4°C 32.0°F0.0°C 81% 0.1 mph WSW0.2 kmh WSW 1.1 mph1.8 kmh 28.59 in968.2 mb 0.00 in0.0 mm 0.00 in0.0 mm 0.00 in0.0 mm
10:00 AM 36.7°F2.6°C 32.0°F0.0°C 81% 0.6 mph WSW1.0 kmh WSW 1.6 mph2.6 kmh 28.59 in968.2 mb 0.00 in0.0 mm 0.00 in0.0 mm 0.00 in0.0 mm
10:05 AM 36.9°F2.7°C 32.0°F0.0°C 81% 1.0 mph WSW1.6 kmh WSW 2.0 mph3.2 kmh 28.59 in968.2 mb 0.00 in0.0 mm 0.00 in0.0 mm 0.00 in0.0 mm
10:10 AM 37.0°F2.8°C 32.0°F0.0°C 81% 1.1 mph WSW1.8 kmh WSW 2.0 mph3.2 kmh 28.59 in968.2 mb 0.00 in0.0 mm 0.00 in0.0 mm 0.00 in0.0 mm
10:15 AM 37.4°F3.0°C 32.0°F0.0°C 81% 0.9 mph WSW1.4 kmh WSW 2.9 mph4.7 kmh 28.59 in968.2 mb 0.00 in0.0 mm 0.00 in0.0 mm 0.00 in0.0 mm
10:20 AM 37.6°F3.1°C 32.0°F0.0°C 81% 1.4 mph WSW2.3 kmh WSW 2.9 mph4.7 kmh 28.59 in968.2 mb 0.00 in0.0 mm 0.00 in0.0 mm 0.00 in0.0 mm
10:25 AM 37.9°F3.3°C 33.8°F1.0°C 81% 1.4 mph WSW2.3 kmh WSW 2.7 mph4.3 kmh 28.41 in962.1 mb 0.00 in0.0 mm 0.00 in0.0 mm 0.00 in0.0 mm
10:30 AM 38.3°F3.5°C 33.8°F1.0°C 81% 0.5 mph W0.8 kmh W 1.3 mph2.1 kmh 28.41 in962.1 mb 0.00 in0.0 mm 0.00 in0.0 mm 0.00 in0.0 mm
10:35 AM 38.7°F3.7°C 33.8°F1.0°C 81% 0.2 mph WSW0.3 kmh WSW 0.9 mph1.4 kmh 28.41 in962.1 mb 0.00 in0.0 mm 0.00 in0.0 mm 0.00 in0.0 mm
10:40 AM 38.8°F3.8°C 33.8°F1.0°C 81% 0.8 mph W1.3 kmh W 1.3 mph2.1 kmh 28.62 in969.2 mb 0.00 in0.0 mm 0.00 in0.0 mm 0.00 in0.0 mm
10:45 AM 39.2°F4.0°C 33.8°F1.0°C 81% 1.1 mph WNW1.8 kmh WNW 3.4 mph5.5 kmh 28.62 in969.2 mb 0.00 in0.0 mm 0.00 in0.0 mm 0.00 in0.0 mm
10:50 AM 39.6°F4.2°C 33.8°F1.0°C 81% 1.2 mph NW1.9 kmh NW 3.4 mph5.5 kmh 28.62 in969.2 mb 0.00 in0.0 mm 0.00 in0.0 mm 0.00 in0.0 mm
10:55 AM 39.9°F4.4°C 33.8°F1.0°C 80% 1.5 mph WNW2.4 kmh WNW 2.9 mph4.7 kmh 28.62 in969.2 mb 0.00 in0.0 mm 0.00 in0.0 mm 0.00 in0.0 mm
11:00 AM 40.1°F4.5°C 35.6°F2.0°C 80% 2.3 mph W3.7 kmh W 3.4 mph5.5 kmh 28.62 in969.2 mb 0.00 in0.0 mm 0.00 in0.0 mm 0.00 in0.0 mm
11:05 AM 40.3°F4.6°C 35.6°F2.0°C 80% 2.4 mph W3.9 kmh W 3.4 mph5.5 kmh 28.62 in969.2 mb 0.00 in0.0 mm 0.00 in0.0 mm 0.00 in0.0 mm
11:10 AM 40.6°F4.8°C 35.6°F2.0°C 80% 2.2 mph W3.5 kmh W 3.1 mph5.0 kmh 28.62 in969.2 mb 0.00 in0.0 mm 0.00 in0.0 mm 0.00 in0.0 mm
11:15 AM 41.2°F5.1°C 35.6°F2.0°C 79% 2.5 mph WNW4.0 kmh WNW 3.4 mph5.5 kmh 28.62 in969.2 mb 0.00 in0.0 mm 0.00 in0.0 mm 0.00 in0.0 mm
11:20 AM 41.5°F5.3°C 35.6°F2.0°C 79% 2.7 mph WNW4.3 kmh WNW 4.0 mph6.4 kmh 28.62 in969.2 mb 0.00 in0.0 mm 0.00 in0.0 mm 0.00 in0.0 mm
11:25 AM 41.7°F5.4°C 35.6°F2.0°C 78% 2.6 mph W4.2 kmh W 4.0 mph6.4 kmh 28.65 in970.2 mb 0.00 in0.0 mm 0.00 in0.0 mm 0.00 in0.0 mm
11:30 AM 41.7°F5.4°C 35.6°F2.0°C 78% 2.7 mph W4.3 kmh W 3.4 mph5.5 kmh 28.65 in970.2 mb 0.00 in0.0 mm 0.00 in0.0 mm 0.00 in0.0 mm
11:35 AM 41.5°F5.3°C 35.6°F2.0°C 77% 3.6 mph W5.8 kmh W 7.8 mph12.6 kmh 28.65 in970.2 mb 0.00 in0.0 mm 0.00 in0.0 mm 0.00 in0.0 mm
11:40 AM 41.5°F5.3°C 35.6°F2.0°C 77% 4.9 mph NW7.9 kmh NW 8.5 mph13.7 kmh 28.62 in969.2 mb 0.00 in0.0 mm 0.00 in0.0 mm 0.00 in0.0 mm
11:45 AM 41.5°F5.3°C 35.6°F2.0°C 77% 4.5 mph WNW7.2 kmh WNW 8.5 mph13.7 kmh 28.62 in969.2 mb 0.00 in0.0 mm 0.00 in0.0 mm 0.00 in0.0 mm
11:50 AM 41.7°F5.4°C 35.6°F2.0°C 76% 2.6 mph W4.2 kmh W 6.5 mph10.5 kmh 28.62 in969.2 mb 0.00 in0.0 mm 0.00 in0.0 mm 0.00 in0.0 mm
11:55 AM 41.7°F5.4°C 35.6°F2.0°C 76% 2.3 mph NW3.7 kmh NW 4.0 mph6.4 kmh 28.65 in970.2 mb 0.00 in0.0 mm 0.00 in0.0 mm 0.00 in0.0 mm
12:00 PM 41.7°F5.4°C 35.6°F2.0°C 76% 3.4 mph W5.5 kmh W 6.7 mph10.8 kmh 28.65 in970.2 mb 0.00 in0.0 mm 0.00 in0.0 mm 0.00 in0.0 mm
12:05 PM 41.7°F5.4°C 35.6°F2.0°C 76% 4.5 mph WNW7.2 kmh WNW 8.7 mph14.0 kmh 28.65 in970.2 mb 0.00 in0.0 mm 0.00 in0.0 mm 0.00 in0.0 mm
12:10 PM 41.7°F5.4°C 35.6°F2.0°C 75% 5.4 mph NW8.7 kmh NW 10.3 mph16.6 kmh 28.65 in970.2 mb 0.00 in0.0 mm 0.00 in0.0 mm 0.00 in0.0 mm
12:15 PM 41.9°F5.5°C 35.6°F2.0°C 75% 5.0 mph NW8.0 kmh NW 10.3 mph16.6 kmh 28.65 in970.2 mb 0.00 in0.0 mm 0.00 in0.0 mm 0.00 in0.0 mm
12:20 PM 42.1°F5.6°C 35.6°F2.0°C 75% 3.7 mph NW6.0 kmh NW 5.8 mph9.3 kmh 28.65 in970.2 mb 0.00 in0.0 mm 0.00 in0.0 mm 0.00 in0.0 mm
12:25 PM 42.3°F5.7°C 35.6°F2.0°C 75% 2.8 mph NW4.5 kmh NW 4.0 mph6.4 kmh 28.68 in971.2 mb 0.00 in0.0 mm 0.00 in0.0 mm 0.00 in0.0 mm
12:30 PM 42.4°F5.8°C 35.6°F2.0°C 75% 3.0 mph W4.8 kmh W 6.7 mph10.8 kmh 28.68 in971.2 mb 0.00 in0.0 mm 0.00 in0.0 mm 0.00 in0.0 mm
12:35 PM 42.6°F5.9°C 35.6°F2.0°C 74% 3.4 mph W5.5 kmh W 6.7 mph10.8 kmh 28.68 in971.2 mb 0.00 in0.0 mm 0.00 in0.0 mm 0.00 in0.0 mm
12:40 PM 42.8°F6.0°C 35.6°F2.0°C 74% 3.2 mph W5.1 kmh W 4.0 mph6.4 kmh 28.68 in971.2 mb 0.00 in0.0 mm 0.00 in0.0 mm 0.00 in0.0 mm
12:45 PM 43.0°F6.1°C 35.6°F2.0°C 74% 3.8 mph WSW6.1 kmh WSW 5.8 mph9.3 kmh 28.68 in971.2 mb 0.00 in0.0 mm 0.00 in0.0 mm 0.00 in0.0 mm
12:50 PM 43.2°F6.2°C 35.6°F2.0°C 74% 4.0 mph WSW6.4 kmh WSW 6.0 mph9.7 kmh 28.68 in971.2 mb 0.00 in0.0 mm 0.00 in0.0 mm 0.00 in0.0 mm
12:55 PM 43.5°F6.4°C 35.6°F2.0°C 74% 3.0 mph W4.8 kmh W 6.0 mph9.7 kmh 28.68 in971.2 mb 0.00 in0.0 mm 0.00 in0.0 mm 0.00 in0.0 mm
01:00 PM 43.9°F6.6°C 35.6°F2.0°C 73% 3.6 mph W5.8 kmh W 7.8 mph12.6 kmh 28.68 in971.2 mb 0.00 in0.0 mm 0.00 in0.0 mm 0.00 in0.0 mm
01:05 PM 44.1°F6.7°C 35.6°F2.0°C 73% 4.7 mph W7.6 kmh W 8.1 mph13.0 kmh 28.68 in971.2 mb 0.00 in0.0 mm 0.00 in0.0 mm 0.00 in0.0 mm
01:10 PM 44.6°F7.0°C 37.4°F3.0°C 72% 4.9 mph W7.9 kmh W 11.9 mph19.2 kmh 28.71 in972.2 mb 0.00 in0.0 mm 0.00 in0.0 mm 0.00 in0.0 mm
01:15 PM 45.7°F7.6°C 37.4°F3.0°C 71% 5.2 mph W8.4 kmh W 11.9 mph19.2 kmh 28.71 in972.2 mb 0.00 in0.0 mm 0.00 in0.0 mm 0.00 in0.0 mm
01:20 PM 46.0°F7.8°C 37.4°F3.0°C 70% 5.3 mph WSW8.5 kmh WSW 11.9 mph19.2 kmh 28.71 in972.2 mb 0.00 in0.0 mm 0.00 in0.0 mm 0.00 in0.0 mm
01:25 PM 45.5°F7.5°C 37.4°F3.0°C 70% 5.4 mph W8.7 kmh W 8.1 mph13.0 kmh 28.71 in972.2 mb 0.00 in0.0 mm 0.00 in0.0 mm 0.00 in0.0 mm
01:30 PM 45.3°F7.4°C 35.6°F2.0°C 69% 7.6 mph W12.2 kmh W 13.6 mph21.9 kmh 28.71 in972.2 mb 0.00 in0.0 mm 0.00 in0.0 mm 0.00 in0.0 mm
01:35 PM 45.3°F7.4°C 35.6°F2.0°C 69% 7.1 mph WSW11.4 kmh WSW 13.6 mph21.9 kmh 28.71 in972.2 mb 0.00 in0.0 mm 0.00 in0.0 mm 0.00 in0.0 mm
01:40 PM 45.0°F7.2°C 35.6°F2.0°C 69% 6.4 mph W10.3 kmh W 13.6 mph21.9 kmh 28.71 in972.2 mb 0.00 in0.0 mm 0.00 in0.0 mm 0.00 in0.0 mm
01:45 PM 45.1°F7.3°C 35.6°F2.0°C 68% 6.1 mph W9.8 kmh W 10.1 mph16.3 kmh 28.71 in972.2 mb 0.00 in0.0 mm 0.00 in0.0 mm 0.00 in0.0 mm
01:50 PM 45.0°F7.2°C 35.6°F2.0°C 68% 6.1 mph W9.8 kmh W 10.1 mph16.3 kmh 28.71 in972.2 mb 0.00 in0.0 mm 0.00 in0.0 mm 0.00 in0.0 mm
01:55 PM 45.0°F7.2°C 35.6°F2.0°C 68% 6.3 mph W10.1 kmh W 8.7 mph14.0 kmh 28.71 in972.2 mb 0.00 in0.0 mm 0.00 in0.0 mm 0.00 in0.0 mm
02:00 PM 45.5°F7.5°C 35.6°F2.0°C 67% 5.3 mph W8.5 kmh W 8.7 mph14.0 kmh 28.71 in972.2 mb 0.00 in0.0 mm 0.00 in0.0 mm 0.00 in0.0 mm
02:05 PM 45.1°F7.3°C 35.6°F2.0°C 67% 4.8 mph WNW7.7 kmh WNW 8.5 mph13.7 kmh 28.71 in972.2 mb 0.00 in0.0 mm 0.00 in0.0 mm 0.00 in0.0 mm
02:10 PM 45.1°F7.3°C 35.6°F2.0°C 67% 5.9 mph W9.5 kmh W 10.7 mph17.2 kmh 28.74 in973.2 mb 0.00 in0.0 mm 0.00 in0.0 mm 0.00 in0.0 mm
02:15 PM 45.0°F7.2°C 35.6°F2.0°C 67% 6.6 mph W10.6 kmh W 10.7 mph17.2 kmh 28.74 in973.2 mb 0.00 in0.0 mm 0.00 in0.0 mm 0.00 in0.0 mm
02:20 PM 45.0°F7.2°C 33.8°F1.0°C 66% 7.0 mph W11.3 kmh W 10.1 mph16.3 kmh 28.74 in973.2 mb 0.00 in0.0 mm 0.00 in0.0 mm 0.00 in0.0 mm
02:25 PM 45.7°F7.6°C 35.6°F2.0°C 66% 5.5 mph W8.9 kmh W 8.7 mph14.0 kmh 28.74 in973.2 mb 0.00 in0.0 mm 0.00 in0.0 mm 0.00 in0.0 mm
02:30 PM 45.5°F7.5°C 35.6°F2.0°C 66% 4.3 mph W6.9 kmh W 7.6 mph12.2 kmh 28.74 in973.2 mb 0.00 in0.0 mm 0.00 in0.0 mm 0.00 in0.0 mm
02:35 PM 46.0°F7.8°C 35.6°F2.0°C 66% 4.9 mph WNW7.9 kmh WNW 7.6 mph12.2 kmh 28.74 in973.2 mb 0.00 in0.0 mm 0.00 in0.0 mm 0.00 in0.0 mm
02:40 PM 46.4°F8.0°C 35.6°F2.0°C 65% 5.3 mph NW8.5 kmh NW 7.6 mph12.2 kmh 28.77 in974.3 mb 0.00 in0.0 mm 0.00 in0.0 mm 0.00 in0.0 mm
02:45 PM 46.2°F7.9°C 35.6°F2.0°C 64% 6.0 mph WNW9.7 kmh WNW 10.3 mph16.6 kmh 28.77 in974.3 mb 0.00 in0.0 mm 0.00 in0.0 mm 0.00 in0.0 mm
02:50 PM 46.2°F7.9°C 35.6°F2.0°C 64% 6.5 mph WNW10.5 kmh WNW 10.3 mph16.6 kmh 28.77 in974.3 mb 0.00 in0.0 mm 0.00 in0.0 mm 0.00 in0.0 mm
02:55 PM 46.0°F7.8°C 33.8°F1.0°C 64% 6.1 mph W9.8 kmh W 8.9 mph14.3 kmh 28.77 in974.3 mb 0.00 in0.0 mm 0.00 in0.0 mm 0.00 in0.0 mm
03:00 PM 45.7°F7.6°C 33.8°F1.0°C 62% 6.3 mph W10.1 kmh W 11.0 mph17.7 kmh 28.77 in974.3 mb 0.00 in0.0 mm 0.00 in0.0 mm 0.00 in0.0 mm
03:05 PM 45.1°F7.3°C 33.8°F1.0°C 62% 7.3 mph W11.7 kmh W 11.4 mph18.3 kmh 28.77 in974.3 mb 0.00 in0.0 mm 0.00 in0.0 mm 0.00 in0.0 mm
03:10 PM 44.8°F7.1°C 32.0°F0.0°C 62% 7.6 mph W12.2 kmh W 11.4 mph18.3 kmh 28.74 in973.2 mb 0.00 in0.0 mm 0.00 in0.0 mm 0.00 in0.0 mm
03:15 PM 45.0°F7.2°C 32.0°F0.0°C 61% 7.7 mph W12.4 kmh W 11.0 mph17.7 kmh 28.74 in973.2 mb 0.00 in0.0 mm 0.00 in0.0 mm 0.00 in0.0 mm
03:20 PM 44.8°F7.1°C 32.0°F0.0°C 61% 8.4 mph WSW13.5 kmh WSW 12.3 mph19.8 kmh 28.74 in973.2 mb 0.00 in0.0 mm 0.00 in0.0 mm 0.00 in0.0 mm
03:25 PM 44.6°F7.0°C 32.0°F0.0°C 61% 7.7 mph W12.4 kmh W 12.3 mph19.8 kmh 28.80 in975.3 mb 0.00 in0.0 mm 0.00 in0.0 mm 0.00 in0.0 mm
03:30 PM 44.2°F6.8°C 32.0°F0.0°C 61% 6.1 mph WNW9.8 kmh WNW 9.6 mph15.4 kmh 28.80 in975.3 mb 0.00 in0.0 mm 0.00 in0.0 mm 0.00 in0.0 mm
03:35 PM 43.7°F6.5°C 32.0°F0.0°C 62% 5.0 mph W8.0 kmh W 9.8 mph15.8 kmh 28.80 in975.3 mb 0.00 in0.0 mm 0.00 in0.0 mm 0.00 in0.0 mm
03:40 PM 43.7°F6.5°C 32.0°F0.0°C 62% 4.1 mph WNW6.6 kmh WNW 9.8 mph15.8 kmh 28.80 in975.3 mb 0.00 in0.0 mm 0.00 in0.0 mm 0.00 in0.0 mm
03:45 PM 43.7°F6.5°C 32.0°F0.0°C 62% 3.8 mph NW6.1 kmh NW 8.5 mph13.7 kmh 28.80 in975.3 mb 0.00 in0.0 mm 0.00 in0.0 mm 0.00 in0.0 mm
03:50 PM 43.9°F6.6°C 32.0°F0.0°C 63% 4.3 mph W6.9 kmh W 8.9 mph14.3 kmh 28.80 in975.3 mb 0.00 in0.0 mm 0.00 in0.0 mm 0.00 in0.0 mm
03:55 PM 44.2°F6.8°C 32.0°F0.0°C 63% 4.1 mph W6.6 kmh W 8.9 mph14.3 kmh 28.80 in975.3 mb 0.00 in0.0 mm 0.00 in0.0 mm 0.00 in0.0 mm
04:00 PM 44.1°F6.7°C 32.0°F0.0°C 62% 5.5 mph W8.9 kmh W 10.1 mph16.3 kmh 28.80 in975.3 mb 0.00 in0.0 mm 0.00 in0.0 mm 0.00 in0.0 mm
04:05 PM 43.7°F6.5°C 32.0°F0.0°C 62% 7.1 mph WSW11.4 kmh WSW 10.1 mph16.3 kmh 28.80 in975.3 mb 0.00 in0.0 mm 0.00 in0.0 mm 0.00 in0.0 mm
04:10 PM 43.5°F6.4°C 32.0°F0.0°C 62% 7.5 mph W12.1 kmh W 10.5 mph16.9 kmh 28.77 in974.3 mb 0.00 in0.0 mm 0.00 in0.0 mm 0.00 in0.0 mm
04:15 PM 43.2°F6.2°C 32.0°F0.0°C 63% 6.0 mph WNW9.7 kmh WNW 10.5 mph16.9 kmh 28.77 in974.3 mb 0.00 in0.0 mm 0.00 in0.0 mm 0.00 in0.0 mm
04:20 PM 43.0°F6.1°C 32.0°F0.0°C 63% 5.0 mph W8.0 kmh W 8.1 mph13.0 kmh 28.77 in974.3 mb 0.00 in0.0 mm 0.00 in0.0 mm 0.00 in0.0 mm
04:25 PM 42.8°F6.0°C 32.0°F0.0°C 63% 4.5 mph W7.2 kmh W 6.5 mph10.5 kmh 28.80 in975.3 mb 0.00 in0.0 mm 0.00 in0.0 mm 0.00 in0.0 mm
04:30 PM 42.4°F5.8°C 32.0°F0.0°C 63% 4.0 mph WNW6.4 kmh WNW 6.5 mph10.5 kmh 28.80 in975.3 mb 0.00 in0.0 mm 0.00 in0.0 mm 0.00 in0.0 mm
04:35 PM 42.3°F5.7°C 32.0°F0.0°C 64% 4.3 mph W6.9 kmh W 7.6 mph12.2 kmh 28.80 in975.3 mb 0.00 in0.0 mm 0.00 in0.0 mm 0.00 in0.0 mm
04:40 PM 41.9°F5.5°C 32.0°F0.0°C 64% 4.4 mph W7.1 kmh W 7.6 mph12.2 kmh 28.82 in976.0 mb 0.00 in0.0 mm 0.00 in0.0 mm 0.00 in0.0 mm
04:45 PM 41.7°F5.4°C 30.2°F-1.0°C 64% 4.4 mph W7.1 kmh W 6.5 mph10.5 kmh 28.82 in976.0 mb 0.00 in0.0 mm 0.00 in0.0 mm 0.00 in0.0 mm
04:50 PM 41.5°F5.3°C 30.2°F-1.0°C 64% 4.0 mph W6.4 kmh W 6.0 mph9.7 kmh 28.82 in976.0 mb 0.00 in0.0 mm 0.00 in0.0 mm 0.00 in0.0 mm
04:55 PM 41.4°F5.2°C 30.2°F-1.0°C 64% 4.2 mph W6.8 kmh W 5.6 mph9.0 kmh 28.82 in976.0 mb 0.00 in0.0 mm 0.00 in0.0 mm 0.00 in0.0 mm
05:00 PM 41.0°F5.0°C 30.2°F-1.0°C 64% 4.7 mph W7.6 kmh W 7.6 mph12.2 kmh 28.82 in976.0 mb 0.00 in0.0 mm 0.00 in0.0 mm 0.00 in0.0 mm
05:05 PM 40.8°F4.9°C 30.2°F-1.0°C 64% 4.9 mph W7.9 kmh W 7.6 mph12.2 kmh 28.82 in976.0 mb 0.00 in0.0 mm 0.00 in0.0 mm 0.00 in0.0 mm
05:10 PM 40.3°F4.6°C 30.2°F-1.0°C 64% 3.9 mph W6.3 kmh W 6.3 mph10.1 kmh 28.82 in976.0 mb 0.00 in0.0 mm 0.00 in0.0 mm 0.00 in0.0 mm
05:15 PM 40.1°F4.5°C 30.2°F-1.0°C 64% 3.0 mph WSW4.8 kmh WSW 4.9 mph7.9 kmh 28.82 in976.0 mb 0.00 in0.0 mm 0.00 in0.0 mm 0.00 in0.0 mm
05:20 PM 39.9°F4.4°C 30.2°F-1.0°C 65% 2.8 mph WSW4.5 kmh WSW 4.9 mph7.9 kmh 28.82 in976.0 mb 0.00 in0.0 mm 0.00 in0.0 mm 0.00 in0.0 mm
05:25 PM 39.4°F4.1°C 28.4°F-2.0°C 65% 2.0 mph WNW3.2 kmh WNW 3.8 mph6.1 kmh 28.85 in977.0 mb 0.00 in0.0 mm 0.00 in0.0 mm 0.00 in0.0 mm
05:30 PM 38.8°F3.8°C 28.4°F-2.0°C 65% 1.1 mph WNW1.8 kmh WNW 2.5 mph4.0 kmh 28.85 in977.0 mb 0.00 in0.0 mm 0.00 in0.0 mm 0.00 in0.0 mm
05:35 PM 38.5°F3.6°C 28.4°F-2.0°C 66% 1.2 mph W1.9 kmh W 2.0 mph3.2 kmh 28.85 in977.0 mb 0.00 in0.0 mm 0.00 in0.0 mm 0.00 in0.0 mm
05:45 PM 37.9°F3.3°C 28.4°F-2.0°C 66% 1.0 mph W1.6 kmh W 1.6 mph2.6 kmh 28.85 in977.0 mb 0.00 in0.0 mm 0.00 in0.0 mm 0.00 in0.0 mm
05:50 PM 37.8°F3.2°C 28.4°F-2.0°C 67% 1.2 mph W1.9 kmh W 2.0 mph3.2 kmh 28.85 in977.0 mb 0.00 in0.0 mm 0.00 in0.0 mm 0.00 in0.0 mm
05:55 PM 37.8°F3.2°C 28.4°F-2.0°C 67% 1.1 mph W1.8 kmh W 2.0 mph3.2 kmh 28.85 in977.0 mb 0.00 in0.0 mm 0.00 in0.0 mm 0.00 in0.0 mm
06:00 PM 37.4°F3.0°C 28.4°F-2.0°C 67% 0.8 mph W1.3 kmh W 1.6 mph2.6 kmh 28.85 in977.0 mb 0.00 in0.0 mm 0.00 in0.0 mm 0.00 in0.0 mm
06:05 PM 37.6°F3.1°C 28.4°F-2.0°C 68% 0.9 mph WSW1.4 kmh WSW 2.0 mph3.2 kmh 28.85 in977.0 mb 0.00 in0.0 mm 0.00 in0.0 mm 0.00 in0.0 mm
06:10 PM 37.4°F3.0°C 28.4°F-2.0°C 68% 1.2 mph WSW1.9 kmh WSW 2.0 mph3.2 kmh 28.88 in978.0 mb 0.00 in0.0 mm 0.00 in0.0 mm 0.00 in0.0 mm
06:15 PM 37.2°F2.9°C 28.4°F-2.0°C 68% 1.0 mph WSW1.6 kmh WSW 2.0 mph3.2 kmh 28.88 in978.0 mb 0.00 in0.0 mm 0.00 in0.0 mm 0.00 in0.0 mm
06:20 PM 37.0°F2.8°C 28.4°F-2.0°C 68% 1.3 mph WSW2.1 kmh WSW 2.5 mph4.0 kmh 28.88 in978.0 mb 0.00 in0.0 mm 0.00 in0.0 mm 0.00 in0.0 mm
06:25 PM 36.5°F2.5°C 28.4°F-2.0°C 68% 1.3 mph WSW2.1 kmh WSW 2.5 mph4.0 kmh 28.88 in978.0 mb 0.00 in0.0 mm 0.00 in0.0 mm 0.00 in0.0 mm
06:30 PM 36.1°F2.3°C 26.6°F-3.0°C 68% 1.1 mph W1.8 kmh W 2.7 mph4.3 kmh 28.88 in978.0 mb 0.00 in0.0 mm 0.00 in0.0 mm 0.00 in0.0 mm
06:35 PM 35.8°F2.1°C 26.6°F-3.0°C 69% 1.3 mph W2.1 kmh W 3.1 mph5.0 kmh 28.88 in978.0 mb 0.00 in0.0 mm 0.00 in0.0 mm 0.00 in0.0 mm
06:40 PM 35.6°F2.0°C 26.6°F-3.0°C 69% 1.0 mph W1.6 kmh W 3.1 mph5.0 kmh 28.88 in978.0 mb 0.00 in0.0 mm 0.00 in0.0 mm 0.00 in0.0 mm
06:45 PM 35.6°F2.0°C 26.6°F-3.0°C 69% 0.7 mph W1.1 kmh W 2.5 mph4.0 kmh 28.88 in978.0 mb 0.00 in0.0 mm 0.00 in0.0 mm 0.00 in0.0 mm
06:50 PM 35.4°F1.9°C 26.6°F-3.0°C 69% 0.8 mph W1.3 kmh W 2.5 mph4.0 kmh 28.88 in978.0 mb 0.00 in0.0 mm 0.00 in0.0 mm 0.00 in0.0 mm
06:55 PM 35.2°F1.8°C 26.6°F-3.0°C 69% 1.0 mph W1.6 kmh W 3.1 mph5.0 kmh 28.88 in978.0 mb 0.00 in0.0 mm 0.00 in0.0 mm 0.00 in0.0 mm
07:00 PM 35.2°F1.8°C 26.6°F-3.0°C 69% 0.9 mph W1.4 kmh W 3.1 mph5.0 kmh 28.91 in979.0 mb 0.00 in0.0 mm 0.00 in0.0 mm 0.00 in0.0 mm
07:05 PM 34.9°F1.6°C 26.6°F-3.0°C 70% 0.9 mph W1.4 kmh W 2.7 mph4.3 kmh 28.91 in979.0 mb 0.00 in0.0 mm 0.00 in0.0 mm 0.00 in0.0 mm
07:10 PM 34.7°F1.5°C 26.6°F-3.0°C 70% 0.9 mph W1.4 kmh W 2.7 mph4.3 kmh 28.91 in979.0 mb 0.00 in0.0 mm 0.00 in0.0 mm 0.00 in0.0 mm
07:15 PM 34.5°F1.4°C 26.6°F-3.0°C 70% 1.1 mph WNW1.8 kmh WNW 2.5 mph4.0 kmh 28.91 in979.0 mb 0.00 in0.0 mm 0.00 in0.0 mm 0.00 in0.0 mm
07:20 PM 34.2°F1.2°C 26.6°F-3.0°C 70% 0.8 mph WNW1.3 kmh WNW 2.5 mph4.0 kmh 28.91 in979.0 mb 0.00 in0.0 mm 0.00 in0.0 mm 0.00 in0.0 mm
07:25 PM 34.0°F1.1°C 24.8°F-4.0°C 70% 0.1 mph W0.2 kmh W 1.1 mph1.8 kmh 28.91 in979.0 mb 0.00 in0.0 mm 0.00 in0.0 mm 0.00 in0.0 mm
07:30 PM 33.8°F1.0°C 26.6°F-3.0°C 71% 0.2 mph W0.3 kmh W 1.1 mph1.8 kmh 28.94 in980.0 mb 0.00 in0.0 mm 0.00 in0.0 mm 0.00 in0.0 mm
07:35 PM 33.8°F1.0°C 26.6°F-3.0°C 71% 0.2 mph W0.3 kmh W 0.9 mph1.4 kmh 28.94 in980.0 mb 0.00 in0.0 mm 0.00 in0.0 mm 0.00 in0.0 mm
07:40 PM 33.6°F0.9°C 26.6°F-3.0°C 71% 0.1 mph WNW0.2 kmh WNW 0.9 mph1.4 kmh 28.94 in980.0 mb 0.00 in0.0 mm 0.00 in0.0 mm 0.00 in0.0 mm
07:45 PM 33.4°F0.8°C 26.6°F-3.0°C 71% 0.4 mph W0.6 kmh W 2.0 mph3.2 kmh 28.94 in980.0 mb 0.00 in0.0 mm 0.00 in0.0 mm 0.00 in0.0 mm
07:50 PM 33.3°F0.7°C 24.8°F-4.0°C 71% 0.5 mph W0.8 kmh W 2.0 mph3.2 kmh 28.94 in980.0 mb 0.00 in0.0 mm 0.00 in0.0 mm 0.00 in0.0 mm
07:55 PM 32.9°F0.5°C 26.6°F-3.0°C 72% 0.2 mph WNW0.3 kmh WNW 2.0 mph3.2 kmh 28.94 in980.0 mb 0.00 in0.0 mm 0.00 in0.0 mm 0.00 in0.0 mm
08:00 PM 32.9°F0.5°C 26.6°F-3.0°C 72% Calm Calm -- 28.94 in980.0 mb 0.00 in0.0 mm 0.00 in0.0 mm 0.00 in0.0 mm
08:05 PM 32.7°F0.4°C 24.8°F-4.0°C 72% Calm Calm -- 28.94 in980.0 mb 0.00 in0.0 mm 0.00 in0.0 mm 0.00 in0.0 mm
08:10 PM 32.5°F0.3°C 24.8°F-4.0°C 72% 0.1 mph SSW0.2 kmh SSW 0.9 mph1.4 kmh 28.94 in980.0 mb 0.00 in0.0 mm 0.00 in0.0 mm 0.00 in0.0 mm
08:15 PM 32.7°F0.4°C 24.8°F-4.0°C 73% 0.4 mph WSW0.6 kmh WSW 2.2 mph3.5 kmh 28.94 in980.0 mb 0.00 in0.0 mm 0.00 in0.0 mm 0.00 in0.0 mm
08:20 PM 32.9°F0.5°C 26.6°F-3.0°C 73% 0.6 mph WSW1.0 kmh WSW 2.2 mph3.5 kmh 28.94 in980.0 mb 0.00 in0.0 mm 0.00 in0.0 mm 0.00 in0.0 mm
08:25 PM 32.9°F0.5°C 26.6°F-3.0°C 73% 0.6 mph W1.0 kmh W 2.0 mph3.2 kmh 28.94 in980.0 mb 0.00 in0.0 mm 0.00 in0.0 mm 0.00 in0.0 mm
08:30 PM 32.5°F0.3°C 24.8°F-4.0°C 73% 0.6 mph W1.0 kmh W 1.3 mph2.1 kmh 28.97 in981.0 mb 0.00 in0.0 mm 0.00 in0.0 mm 0.00 in0.0 mm
08:35 PM 32.4°F0.2°C 24.8°F-4.0°C 73% 0.3 mph WNW0.5 kmh WNW 1.3 mph2.1 kmh 28.97 in981.0 mb 0.00 in0.0 mm 0.00 in0.0 mm 0.00 in0.0 mm
08:40 PM 32.4°F0.2°C 24.8°F-4.0°C 73% 0.6 mph NW1.0 kmh NW 2.0 mph3.2 kmh 28.97 in981.0 mb 0.00 in0.0 mm 0.00 in0.0 mm 0.00 in0.0 mm
08:45 PM 32.2°F0.1°C 24.8°F-4.0°C 73% 0.7 mph NW1.1 kmh NW 2.0 mph3.2 kmh 28.97 in981.0 mb 0.00 in0.0 mm 0.00 in0.0 mm 0.00 in0.0 mm
08:50 PM 32.2°F0.1°C 24.8°F-4.0°C 74% 0.5 mph W0.8 kmh W 1.6 mph2.6 kmh 28.97 in981.0 mb 0.00 in0.0 mm 0.00 in0.0 mm 0.00 in0.0 mm
08:55 PM 32.4°F0.2°C 24.8°F-4.0°C 74% 0.5 mph W0.8 kmh W 1.6 mph2.6 kmh 28.97 in981.0 mb 0.00 in0.0 mm 0.00 in0.0 mm 0.00 in0.0 mm
09:00 PM 32.0°F0.0°C 23.0°F-5.0°C 74% 0.4 mph W0.6 kmh W 1.6 mph2.6 kmh 28.97 in981.0 mb 0.00 in0.0 mm 0.00 in0.0 mm 0.00 in0.0 mm
09:05 PM 31.8°F-0.1°C 23.0°F-5.0°C 74% 0.3 mph W0.5 kmh W 0.9 mph1.4 kmh 28.97 in981.0 mb 0.00 in0.0 mm 0.00 in0.0 mm 0.00 in0.0 mm
09:10 PM 32.0°F0.0°C 23.0°F-5.0°C 74% 0.6 mph WSW1.0 kmh WSW 1.1 mph1.8 kmh 28.97 in981.0 mb 0.00 in0.0 mm 0.00 in0.0 mm 0.00 in0.0 mm
09:15 PM 32.0°F0.0°C 23.0°F-5.0°C 74% 0.9 mph WSW1.4 kmh WSW 2.2 mph3.5 kmh 28.97 in981.0 mb 0.00 in0.0 mm 0.00 in0.0 mm 0.00 in0.0 mm
09:20 PM 31.8°F-0.1°C 23.0°F-5.0°C 74% 0.9 mph W1.4 kmh W 2.2 mph3.5 kmh 28.97 in981.0 mb 0.00 in0.0 mm 0.00 in0.0 mm 0.00 in0.0 mm
09:25 PM 32.0°F0.0°C 23.0°F-5.0°C 74% 1.1 mph W1.8 kmh W 1.6 mph2.6 kmh 28.97 in981.0 mb 0.00 in0.0 mm 0.00 in0.0 mm 0.00 in0.0 mm
09:30 PM 32.0°F0.0°C 23.0°F-5.0°C 75% 0.9 mph WSW1.4 kmh WSW 2.0 mph3.2 kmh 29.00 in982.1 mb 0.00 in0.0 mm 0.00 in0.0 mm 0.00 in0.0 mm
09:35 PM 32.4°F0.2°C 26.6°F-3.0°C 75% 1.4 mph WSW2.3 kmh WSW 2.7 mph4.3 kmh 29.00 in982.1 mb 0.00 in0.0 mm 0.00 in0.0 mm 0.00 in0.0 mm
09:40 PM 32.7°F0.4°C 26.6°F-3.0°C 75% 2.2 mph WSW3.5 kmh WSW 3.1 mph5.0 kmh 29.00 in982.1 mb 0.00 in0.0 mm 0.00 in0.0 mm 0.00 in0.0 mm
09:45 PM 32.9°F0.5°C 26.6°F-3.0°C 75% 1.8 mph WSW2.9 kmh WSW 3.1 mph5.0 kmh 28.97 in981.0 mb 0.00 in0.0 mm 0.00 in0.0 mm 0.00 in0.0 mm
09:50 PM 32.5°F0.3°C 26.6°F-3.0°C 75% 1.3 mph W2.1 kmh W 3.1 mph5.0 kmh 28.97 in981.0 mb 0.00 in0.0 mm 0.00 in0.0 mm 0.00 in0.0 mm
09:55 PM 32.4°F0.2°C 26.6°F-3.0°C 75% 0.7 mph NW1.1 kmh NW 2.5 mph4.0 kmh 28.97 in981.0 mb 0.00 in0.0 mm 0.00 in0.0 mm 0.00 in0.0 mm
10:00 PM 32.0°F0.0°C 23.0°F-5.0°C 75% 0.3 mph NE0.5 kmh NE 1.1 mph1.8 kmh 29.00 in982.1 mb 0.00 in0.0 mm 0.00 in0.0 mm 0.00 in0.0 mm
10:05 PM 31.6°F-0.2°C 23.0°F-5.0°C 75% 0.1 mph NE0.2 kmh NE 1.1 mph1.8 kmh 29.00 in982.1 mb 0.00 in0.0 mm 0.00 in0.0 mm 0.00 in0.0 mm
10:10 PM 31.6°F-0.2°C 23.0°F-5.0°C 75% Calm Calm -- 29.00 in982.1 mb 0.00 in0.0 mm 0.00 in0.0 mm 0.00 in0.0 mm
10:15 PM 31.5°F-0.3°C 23.0°F-5.0°C 75% 0.2 mph W0.3 kmh W 1.1 mph1.8 kmh 29.03 in983.1 mb 0.00 in0.0 mm 0.00 in0.0 mm 0.00 in0.0 mm
10:20 PM 31.3°F-0.4°C 23.0°F-5.0°C 75% 0.2 mph W0.3 kmh W 1.1 mph1.8 kmh 29.03 in983.1 mb 0.00 in0.0 mm 0.00 in0.0 mm 0.00 in0.0 mm
10:25 PM 31.3°F-0.4°C 23.0°F-5.0°C 75% 0.2 mph WSW0.3 kmh WSW 0.9 mph1.4 kmh 29.03 in983.1 mb 0.00 in0.0 mm 0.00 in0.0 mm 0.00 in0.0 mm
10:30 PM 30.9°F-0.6°C 23.0°F-5.0°C 75% 0.1 mph WSW0.2 kmh WSW 0.9 mph1.4 kmh 29.03 in983.1 mb 0.00 in0.0 mm 0.00 in0.0 mm 0.00 in0.0 mm
10:35 PM 30.6°F-0.8°C 23.0°F-5.0°C 75% Calm Calm -- 29.03 in983.1 mb 0.00 in0.0 mm 0.00 in0.0 mm 0.00 in0.0 mm
10:40 PM 30.4°F-0.9°C 23.0°F-5.0°C 75% Calm Calm -- 29.03 in983.1 mb 0.00 in0.0 mm 0.00 in0.0 mm 0.00 in0.0 mm
10:45 PM 30.2°F-1.0°C 23.0°F-5.0°C 75% 0.1 mph WSW0.2 kmh WSW 0.9 mph1.4 kmh 29.06 in984.1 mb 0.00 in0.0 mm 0.00 in0.0 mm 0.00 in0.0 mm
10:50 PM 30.6°F-0.8°C 23.0°F-5.0°C 76% 0.1 mph WSW0.2 kmh WSW 0.9 mph1.4 kmh 29.06 in984.1 mb 0.00 in0.0 mm 0.00 in0.0 mm 0.00 in0.0 mm
10:55 PM 30.9°F-0.6°C 23.0°F-5.0°C 76% 0.5 mph W0.8 kmh W 2.5 mph4.0 kmh 29.06 in984.1 mb 0.00 in0.0 mm 0.00 in0.0 mm 0.00 in0.0 mm
11:00 PM 30.7°F-0.7°C 23.0°F-5.0°C 76% 1.0 mph WSW1.6 kmh WSW 2.7 mph4.3 kmh 29.06 in984.1 mb 0.00 in0.0 mm 0.00 in0.0 mm 0.00 in0.0 mm
11:05 PM 31.6°F-0.2°C 24.8°F-4.0°C 77% 1.8 mph WSW2.9 kmh WSW 2.9 mph4.7 kmh 29.06 in984.1 mb 0.00 in0.0 mm 0.00 in0.0 mm 0.00 in0.0 mm
11:10 PM 31.8°F-0.1°C 24.8°F-4.0°C 77% 2.3 mph WSW3.7 kmh WSW 2.9 mph4.7 kmh 29.06 in984.1 mb 0.00 in0.0 mm 0.00 in0.0 mm 0.00 in0.0 mm
11:15 PM 32.0°F0.0°C 24.8°F-4.0°C 77% 2.0 mph WSW3.2 kmh WSW 2.9 mph4.7 kmh 29.06 in984.1 mb 0.00 in0.0 mm 0.00 in0.0 mm 0.00 in0.0 mm
11:20 PM 31.1°F-0.5°C 23.0°F-5.0°C 77% 1.3 mph WSW2.1 kmh WSW 2.7 mph4.3 kmh 29.06 in984.1 mb 0.00 in0.0 mm 0.00 in0.0 mm 0.00 in0.0 mm
11:25 PM 30.6°F-0.8°C 23.0°F-5.0°C 76% 0.5 mph WSW0.8 kmh WSW 2.0 mph3.2 kmh 29.06 in984.1 mb 0.00 in0.0 mm 0.00 in0.0 mm 0.00 in0.0 mm
11:30 PM 30.4°F-0.9°C 23.0°F-5.0°C 77% 0.1 mph N0.2 kmh N 1.1 mph1.8 kmh 29.09 in985.1 mb 0.00 in0.0 mm 0.00 in0.0 mm 0.00 in0.0 mm
11:35 PM 30.2°F-1.0°C 23.0°F-5.0°C 77% 0.1 mph WSW0.2 kmh WSW 0.9 mph1.4 kmh 29.09 in985.1 mb 0.00 in0.0 mm 0.00 in0.0 mm 0.00 in0.0 mm
11:40 PM 30.4°F-0.9°C 23.0°F-5.0°C 77% 0.2 mph WSW0.3 kmh WSW 0.9 mph1.4 kmh 29.09 in985.1 mb 0.00 in0.0 mm 0.00 in0.0 mm 0.00 in0.0 mm
11:45 PM 30.4°F-0.9°C 23.0°F-5.0°C 77% 0.1 mph SW0.2 kmh SW 0.9 mph1.4 kmh 29.09 in985.1 mb 0.00 in0.0 mm 0.00 in0.0 mm 0.00 in0.0 mm
11:50 PM 31.1°F-0.5°C 23.0°F-5.0°C 77% 0.1 mph SW0.2 kmh SW 0.9 mph1.4 kmh 29.09 in985.1 mb 0.00 in0.0 mm 0.00 in0.0 mm 0.00 in0.0 mm
11:55 PM 31.6°F-0.2°C 24.8°F-4.0°C 78% 0.4 mph S0.6 kmh S 1.3 mph2.1 kmh 29.09 in985.1 mb 0.00 in0.0 mm 0.00 in0.0 mm 0.00 in0.0 mm